createdAt,value
2023-03-16T00:00:48.342Z,2.14
2023-03-16T00:03:19.404Z,2.17
2023-03-16T00:05:47.677Z,2.09
2023-03-16T00:08:15.216Z,2.08
2023-03-16T00:10:46.596Z,1.87
2023-03-16T00:13:17.636Z,1.84
2023-03-16T00:15:59.085Z,1.86
2023-03-16T00:18:27.981Z,1.72
2023-03-16T00:20:56.760Z,1.65
2023-03-16T00:23:27.176Z,1.72
2023-03-16T00:25:58.734Z,1.63
2023-03-16T00:28:26.467Z,1.53
2023-03-16T00:30:53.147Z,1.58
2023-03-16T00:33:19.542Z,1.54
2023-03-16T00:35:51.328Z,1.53
2023-03-16T00:38:19.143Z,1.55
2023-03-16T00:40:47.053Z,1.53
2023-03-16T00:43:18.584Z,1.52
2023-03-16T00:45:45.423Z,1.46
2023-03-16T00:48:11.991Z,1.45
2023-03-16T00:50:39.551Z,1.35
2023-03-16T00:53:06.290Z,1.30
2023-03-16T00:55:33.420Z,1.29
2023-03-16T00:57:59.850Z,1.28
2023-03-16T01:00:28.325Z,1.33
2023-03-16T01:02:55.043Z,1.22
2023-03-16T01:05:21.476Z,1.30
2023-03-16T01:07:47.879Z,1.24
2023-03-16T01:10:16.464Z,1.27
2023-03-16T01:12:45.273Z,1.24
2023-03-16T01:15:12.004Z,1.25
2023-03-16T01:17:38.452Z,1.18
2023-03-16T01:20:08.319Z,1.16
2023-03-16T01:22:34.740Z,1.17
2023-03-16T01:25:01.749Z,1.20
2023-03-16T01:27:28.134Z,1.17
2023-03-16T01:29:54.708Z,1.15
2023-03-16T01:32:21.138Z,1.16
2023-03-16T01:34:47.577Z,1.18
2023-03-16T01:37:14.701Z,1.17
2023-03-16T01:39:55.434Z,1.17
2023-03-16T01:42:21.826Z,1.17
2023-03-16T01:44:55.186Z,1.16
2023-03-16T01:47:23.804Z,1.27
2023-03-16T01:49:54.942Z,1.24
2023-03-16T01:52:33.247Z,1.24
2023-03-16T01:55:08.559Z,1.23
2023-03-16T01:57:40.221Z,1.25
2023-03-16T02:00:19.864Z,1.27
2023-03-16T02:03:13.753Z,1.24
2023-03-16T02:06:09.814Z,1.25
2023-03-16T02:08:38.863Z,1.23
2023-03-16T02:11:08.371Z,1.27
2023-03-16T02:13:43.530Z,1.26
2023-03-16T02:16:12.254Z,1.20
2023-03-16T02:44:33.647Z,1.07
2023-03-16T02:47:05.629Z,1.05
2023-03-16T02:49:41.970Z,1.04
2023-03-16T02:52:09.021Z,0.99
2023-03-16T02:54:35.605Z,1.01
2023-03-16T02:57:02.346Z,0.95
2023-03-16T02:59:31.101Z,0.93
2023-03-16T03:01:57.708Z,0.98
2023-03-16T03:04:24.699Z,0.92
2023-03-16T03:06:51.800Z,0.94
2023-03-16T03:09:18.888Z,0.94
2023-03-16T03:11:46.826Z,0.98
2023-03-16T03:14:16.817Z,0.95
2023-03-16T03:16:46.884Z,1.02
2023-03-16T03:19:14.109Z,1.00
2023-03-16T03:21:41.531Z,0.95
2023-03-16T03:24:08.928Z,0.97
2023-03-16T03:26:35.366Z,0.87
2023-03-16T03:29:04.895Z,0.85
2023-03-16T03:31:35.096Z,0.84
2023-03-16T03:34:06.426Z,0.79
2023-03-16T03:36:34.969Z,0.81
2023-03-16T03:39:04.957Z,0.79
2023-03-16T03:41:32.920Z,0.82
2023-03-16T03:44:04.177Z,0.86
2023-03-16T03:46:30.949Z,0.85
2023-03-16T03:49:01.998Z,0.88
2023-03-16T03:51:34.198Z,0.85
2023-03-16T03:54:13.772Z,0.91
2023-03-16T03:56:53.518Z,0.89
2023-03-16T03:59:20.836Z,0.86
2023-03-16T04:02:10.327Z,0.93
2023-03-16T04:04:42.687Z,0.88
2023-03-16T04:07:11.571Z,0.70
2023-03-16T04:09:38.928Z,0.65
2023-03-16T04:12:07.767Z,0.64
2023-03-16T04:14:34.268Z,0.66
2023-03-16T04:17:04.755Z,0.58
2023-03-16T04:19:33.536Z,0.30
2023-03-16T04:22:00.328Z,0.23
2023-03-16T04:24:26.968Z,0.20
2023-03-16T04:26:54.419Z,0.14
2023-03-16T04:29:21.399Z,0.22
2023-03-16T04:31:47.984Z,0.18
2023-03-16T04:34:14.899Z,0.20
2023-03-16T04:36:42.103Z,0.15
2023-03-16T04:39:10.347Z,0.14
2023-03-16T04:41:37.361Z,0.11
2023-03-16T04:44:12.684Z,0.15
2023-03-16T04:46:39.753Z,0.15
2023-03-16T04:49:09.651Z,0.17
2023-03-16T04:51:37.781Z,0.20
2023-03-16T04:54:07.612Z,0.04
2023-03-16T04:56:36.104Z,0.07
2023-03-16T04:59:07.706Z,0.15
2023-03-16T05:01:44.711Z,-0.02
2023-03-16T05:04:18.889Z,-0.13
2023-03-16T05:06:46.189Z,-0.12
2023-03-16T05:09:13.957Z,-0.07
2023-03-16T05:11:40.552Z,-0.01
2023-03-16T05:14:09.900Z,0.04
2023-03-16T05:16:49.573Z,-0.04
2023-03-16T05:19:16.242Z,-0.07
2023-03-16T05:21:43.409Z,-0.03
2023-03-16T05:24:09.845Z,-0.02
2023-03-16T05:26:36.279Z,0.01
2023-03-16T05:29:05.465Z,0.00
2023-03-16T05:31:36.256Z,-0.02
2023-03-16T05:34:08.196Z,-0.02
2023-03-16T05:36:36.188Z,-0.06
2023-03-16T05:39:08.648Z,-0.08
2023-03-16T05:41:38.461Z,0.06
2023-03-16T05:44:32.082Z,-0.05
2023-03-16T05:47:19.501Z,0.05
2023-03-16T05:49:50.623Z,0.06
2023-03-16T05:52:26.676Z,0.03
2023-03-16T05:54:55.139Z,-0.02
2023-03-16T05:57:21.670Z,0.05
2023-03-16T05:59:50.872Z,0.14
2023-03-16T06:02:17.376Z,0.09
2023-03-16T06:04:43.851Z,0.10
2023-03-16T06:07:10.692Z,0.04
2023-03-16T06:09:37.230Z,0.04
2023-03-16T06:12:09.888Z,0.17
2023-03-16T06:14:37.142Z,0.20
2023-03-16T06:17:03.609Z,0.30
2023-03-16T06:19:31.639Z,0.43
2023-03-16T06:22:00.287Z,0.52
2023-03-16T06:24:27.708Z,0.63
2023-03-16T06:26:54.268Z,0.73
2023-03-16T06:29:25.403Z,0.91
2023-03-16T06:31:52.512Z,0.99
2023-03-16T06:34:19.345Z,1.21
2023-03-16T06:36:45.798Z,1.19
2023-03-16T06:39:14.316Z,1.33
2023-03-16T06:41:43.012Z,1.42
2023-03-16T06:44:12.128Z,1.66
2023-03-16T06:46:47.204Z,1.97
2023-03-16T06:49:13.609Z,2.23
2023-03-16T06:51:40.073Z,2.61
2023-03-16T06:54:06.543Z,2.72
2023-03-16T06:56:36.878Z,2.88
2023-03-16T06:59:03.751Z,3.08
2023-03-16T07:01:30.313Z,3.33
2023-03-16T07:03:56.766Z,3.37
2023-03-16T07:06:27.461Z,3.42
2023-03-16T07:08:54.271Z,3.55
2023-03-16T07:11:21.885Z,3.70
2023-03-16T07:13:48.268Z,3.99
2023-03-16T07:16:16.124Z,4.56
2023-03-16T07:18:44.359Z,4.98
2023-03-16T07:21:12.197Z,4.98
2023-03-16T07:23:38.754Z,4.88
2023-03-16T07:26:08.239Z,4.86
2023-03-16T07:28:40.675Z,4.77
2023-03-16T07:31:09.394Z,5.27
2023-03-16T07:33:38.831Z,5.36
2023-03-16T07:36:10.515Z,5.27
2023-03-16T07:38:41.649Z,5.40
2023-03-16T07:41:08.909Z,5.55
2023-03-16T07:43:35.769Z,5.58
2023-03-16T07:46:02.291Z,5.37
2023-03-16T07:48:29.426Z,5.44
2023-03-16T07:50:59.864Z,5.49
2023-03-16T07:53:27.320Z,5.47
2023-03-16T07:56:09.596Z,5.66
2023-03-16T07:58:38.254Z,5.84
2023-03-16T08:01:04.751Z,5.93
2023-03-16T08:03:32.000Z,5.78
2023-03-16T08:05:58.776Z,5.86
2023-03-16T08:08:26.399Z,6.07
2023-03-16T08:10:54.141Z,6.00
2023-03-16T08:13:27.293Z,6.25
2023-03-16T08:15:58.754Z,6.30
2023-03-16T08:18:32.178Z,6.74
2023-03-16T08:20:58.697Z,6.77
2023-03-16T08:23:25.918Z,7.22
2023-03-16T08:25:57.100Z,6.90
2023-03-16T08:28:25.937Z,6.76
2023-03-16T08:30:55.434Z,6.47
2023-03-16T08:33:33.172Z,6.70
2023-03-16T08:35:59.984Z,6.75
2023-03-16T08:38:27.012Z,6.44
2023-03-16T08:40:53.712Z,6.65
2023-03-16T08:43:21.890Z,6.49
2023-03-16T08:45:49.163Z,6.69
2023-03-16T08:48:18.326Z,6.61
2023-03-16T08:50:48.984Z,6.80
2023-03-16T08:53:15.403Z,6.81
2023-03-16T08:55:42.226Z,6.53
2023-03-16T08:58:10.424Z,6.58
2023-03-16T09:00:37.429Z,6.87
2023-03-16T09:03:03.886Z,6.84
2023-03-16T09:05:30.620Z,6.79
2023-03-16T09:07:57.216Z,6.78
2023-03-16T09:10:23.641Z,6.91
2023-03-16T09:12:50.537Z,6.93
2023-03-16T09:15:17.018Z,7.04
2023-03-16T09:17:45.001Z,7.28
2023-03-16T09:20:22.188Z,7.36
2023-03-16T09:22:49.403Z,7.50
2023-03-16T09:25:16.066Z,7.57
2023-03-16T09:27:42.669Z,7.78
2023-03-16T09:30:09.706Z,7.87
2023-03-16T09:32:37.358Z,8.00
2023-03-16T09:35:06.193Z,7.97
2023-03-16T09:37:44.585Z,8.35
2023-03-16T09:40:28.705Z,8.37
2023-03-16T09:43:07.103Z,8.74
2023-03-16T09:45:45.522Z,8.67
2023-03-16T09:48:12.244Z,8.74
2023-03-16T09:50:48.699Z,8.68
2023-03-16T09:53:25.288Z,8.82
2023-03-16T09:56:00.471Z,9.02
2023-03-16T09:58:27.229Z,8.92
2023-03-16T10:01:04.933Z,9.05
2023-03-16T10:03:46.720Z,9.08
2023-03-16T10:06:16.853Z,9.15
2023-03-16T10:08:46.395Z,9.24
2023-03-16T10:11:22.232Z,9.63
2023-03-16T10:14:02.506Z,9.47
2023-03-16T10:16:31.830Z,9.29
2023-03-16T10:19:05.794Z,9.66
2023-03-16T10:21:39.823Z,9.86
2023-03-16T10:24:19.439Z,9.89
2023-03-16T10:26:54.384Z,9.75
2023-03-16T10:29:20.799Z,9.47
2023-03-16T10:31:47.440Z,9.71
2023-03-16T10:34:15.212Z,9.94
2023-03-16T10:36:44.445Z,10.03
2023-03-16T10:39:13.077Z,10.28
2023-03-16T10:41:43.378Z,10.28
2023-03-16T10:44:30.139Z,10.26
2023-03-16T10:47:08.187Z,10.37
2023-03-16T10:49:44.421Z,10.03
2023-03-16T10:52:19.748Z,10.48
2023-03-16T10:54:52.715Z,10.62
2023-03-16T10:57:23.810Z,10.94
2023-03-16T10:59:50.874Z,10.79
2023-03-16T11:02:20.696Z,10.90
2023-03-16T11:04:47.918Z,11.09
2023-03-16T11:07:19.013Z,11.11
2023-03-16T11:09:47.201Z,11.20
2023-03-16T11:12:26.413Z,11.33
2023-03-16T11:14:54.058Z,11.34
2023-03-16T11:17:39.930Z,11.10
2023-03-16T11:20:17.491Z,11.37
2023-03-16T11:22:47.155Z,11.51
2023-03-16T11:25:36.627Z,11.32
2023-03-16T11:28:06.411Z,11.33
2023-03-16T11:31:01.336Z,11.64
2023-03-16T11:33:30.986Z,11.67
2023-03-16T11:36:25.340Z,11.78
2023-03-16T11:39:10.915Z,11.84
2023-03-16T11:41:59.599Z,11.96
2023-03-16T11:44:36.157Z,12.14
2023-03-16T11:47:29.012Z,12.41
2023-03-16T11:50:05.615Z,12.42
2023-03-16T11:52:41.937Z,12.15
2023-03-16T11:55:28.726Z,11.71
2023-03-16T11:58:25.031Z,11.80
2023-03-16T12:01:30.765Z,11.55
2023-03-16T12:04:32.489Z,11.81
2023-03-16T12:07:05.996Z,11.84
2023-03-16T12:09:58.156Z,12.25
2023-03-16T12:12:38.871Z,12.07
2023-03-16T12:15:36.703Z,11.58
2023-03-16T12:18:12.593Z,12.10
2023-03-16T12:21:01.604Z,12.41
2023-03-16T12:23:39.403Z,12.29
2023-03-16T12:26:06.408Z,12.16
2023-03-16T12:28:33.516Z,12.21
2023-03-16T12:31:14.518Z,12.81
2023-03-16T12:33:56.391Z,12.46
2023-03-16T12:36:50.970Z,12.36
2023-03-16T12:39:55.285Z,12.77
2023-03-16T12:42:36.194Z,12.72
2023-03-16T12:45:11.037Z,12.19
2023-03-16T12:47:49.476Z,12.35
2023-03-16T12:50:18.983Z,12.19
2023-03-16T12:52:51.769Z,12.40
2023-03-16T12:55:21.010Z,12.69
2023-03-16T12:57:51.489Z,12.46
2023-03-16T13:00:18.485Z,12.29
2023-03-16T13:02:50.998Z,12.56
2023-03-16T13:05:28.397Z,12.72
2023-03-16T13:08:07.998Z,13.09
2023-03-16T13:10:35.098Z,12.65
2023-03-16T13:13:16.107Z,12.59
2023-03-16T13:15:45.097Z,12.80
2023-03-16T13:18:22.486Z,11.81
2023-03-16T13:21:01.686Z,12.30
2023-03-16T13:23:46.492Z,12.62
2023-03-16T13:26:16.579Z,12.25
2023-03-16T13:28:46.032Z,12.35
2023-03-16T13:31:29.525Z,12.82
2023-03-16T13:33:59.839Z,12.63
2023-03-16T13:36:28.749Z,12.13
2023-03-16T13:39:06.777Z,12.59
2023-03-16T13:41:33.187Z,12.53
2023-03-16T13:43:59.661Z,12.82
2023-03-16T13:46:30.684Z,12.82
2023-03-16T13:49:02.852Z,13.01
2023-03-16T13:51:33.151Z,13.02
2023-03-16T13:54:18.883Z,13.08
2023-03-16T13:56:45.371Z,13.21
2023-03-16T13:59:11.922Z,13.27
2023-03-16T14:01:38.434Z,13.00
2023-03-16T14:04:13.668Z,12.09
2023-03-16T14:06:41.302Z,12.21
2023-03-16T14:09:21.590Z,12.40
2023-03-16T14:11:48.778Z,11.99
2023-03-16T14:14:17.320Z,12.11
2023-03-16T14:16:44.570Z,11.94
2023-03-16T14:19:22.586Z,12.12
2023-03-16T14:21:49.686Z,11.99
2023-03-16T14:24:37.055Z,12.46
2023-03-16T14:27:19.292Z,11.91
2023-03-16T14:29:50.434Z,12.11
2023-03-16T14:32:28.099Z,12.15
2023-03-16T14:35:03.949Z,11.96
2023-03-16T14:37:37.320Z,11.53
2023-03-16T14:40:07.387Z,11.54
2023-03-16T14:42:34.734Z,11.63
2023-03-16T14:45:04.781Z,11.80
2023-03-16T14:47:38.587Z,11.81
2023-03-16T14:50:15.275Z,11.65
2023-03-16T14:52:41.710Z,11.82
2023-03-16T14:55:19.693Z,11.54
2023-03-16T14:57:46.418Z,11.69
2023-03-16T15:00:16.609Z,11.44
2023-03-16T15:02:45.811Z,11.81
2023-03-16T15:05:21.749Z,11.85
2023-03-16T15:07:53.654Z,12.23
2023-03-16T15:10:29.824Z,12.00
2023-03-16T15:13:04.322Z,11.96
2023-03-16T15:15:31.560Z,12.11
2023-03-16T15:17:58.377Z,11.46
2023-03-16T15:20:35.912Z,11.29
2023-03-16T15:23:04.876Z,11.86
2023-03-16T15:25:37.261Z,11.89
2023-03-16T15:28:11.960Z,11.71
2023-03-16T15:30:39.046Z,11.72
2023-03-16T15:33:05.902Z,11.91
2023-03-16T15:35:32.596Z,11.84
2023-03-16T15:38:02.978Z,11.22
2023-03-16T15:40:29.905Z,10.98
2023-03-16T15:42:56.922Z,10.85
2023-03-16T15:45:23.900Z,10.95
2023-03-16T15:47:51.720Z,10.98
2023-03-16T15:50:21.716Z,10.84
2023-03-16T15:53:05.829Z,10.74
2023-03-16T15:55:36.608Z,10.84
2023-03-16T15:58:05.176Z,10.53
2023-03-16T16:00:34.842Z,10.25
2023-03-16T16:03:02.886Z,10.46
2023-03-16T16:05:30.865Z,10.41
2023-03-16T16:07:58.366Z,10.33
2023-03-16T16:10:26.815Z,10.15
2023-03-16T16:12:55.156Z,10.00
2023-03-16T16:15:28.925Z,10.06
2023-03-16T16:18:19.184Z,10.01
2023-03-16T16:20:44.090Z,9.92
2023-03-16T16:23:10.525Z,9.83
2023-03-16T16:25:41.290Z,9.80
2023-03-16T16:28:17.470Z,9.69
2023-03-16T16:30:44.484Z,9.59
2023-03-16T16:33:29.907Z,9.70
2023-03-16T16:35:58.950Z,9.65
2023-03-16T16:38:25.835Z,9.70
2023-03-16T16:40:54.122Z,9.54
2023-03-16T16:43:32.615Z,9.50
2023-03-16T16:46:04.982Z,9.43
2023-03-16T16:48:36.603Z,9.39
2023-03-16T16:51:07.179Z,9.30
2023-03-16T16:53:33.640Z,9.22
2023-03-16T16:56:00.294Z,9.20
2023-03-16T16:58:27.067Z,9.16
2023-03-16T17:00:56.527Z,9.13
2023-03-16T17:03:24.675Z,8.99
2023-03-16T17:05:54.403Z,8.97
2023-03-16T17:08:21.019Z,9.00
2023-03-16T17:10:47.867Z,8.92
2023-03-16T17:13:23.322Z,8.94
2023-03-16T17:15:49.747Z,8.93
2023-03-16T17:18:16.822Z,8.89
2023-03-16T17:20:43.232Z,8.86
2023-03-16T17:23:34.516Z,8.83
2023-03-16T17:26:02.938Z,8.70
2023-03-16T17:28:35.112Z,8.64
2023-03-16T17:31:01.556Z,8.65
2023-03-16T17:33:28.364Z,8.56
2023-03-16T17:35:55.105Z,8.43
2023-03-16T17:38:24.299Z,8.46
2023-03-16T17:40:52.790Z,8.41
2023-03-16T17:43:22.429Z,8.41
2023-03-16T17:45:51.648Z,8.36
2023-03-16T17:48:20.844Z,8.33
2023-03-16T17:50:48.601Z,8.28
2023-03-16T17:53:19.967Z,8.26
2023-03-16T17:55:47.063Z,8.22
2023-03-16T17:58:30.283Z,8.25
2023-03-16T18:01:09.571Z,8.03
2023-03-16T18:03:36.088Z,8.07
2023-03-16T18:06:02.506Z,8.00
2023-03-16T18:08:33.205Z,8.06
2023-03-16T18:11:02.531Z,7.97
2023-03-16T18:13:33.378Z,8.01
2023-03-16T18:16:00.823Z,7.87
2023-03-16T18:18:30.072Z,7.84
2023-03-16T18:20:57.636Z,7.86
2023-03-16T18:23:33.450Z,7.85
2023-03-16T18:26:06.988Z,7.82
2023-03-16T18:28:35.010Z,7.82
2023-03-16T18:31:03.633Z,7.76
2023-03-16T18:34:11.431Z,7.78
2023-03-16T18:36:37.997Z,7.73
2023-03-16T18:39:17.052Z,7.74
2023-03-16T18:41:44.657Z,7.72
2023-03-16T18:44:20.288Z,7.72
2023-03-16T18:46:48.442Z,7.84
2023-03-16T18:49:23.154Z,7.72
2023-03-16T18:51:53.274Z,7.69
2023-03-16T18:54:31.157Z,7.66
2023-03-16T18:56:58.891Z,7.69
2023-03-16T18:59:25.753Z,7.68
2023-03-16T19:01:53.248Z,7.65
2023-03-16T19:04:29.257Z,7.62
2023-03-16T19:06:56.732Z,7.59
2023-03-16T19:09:32.409Z,7.61
2023-03-16T19:11:59.406Z,7.52
2023-03-16T19:14:30.779Z,7.62
2023-03-16T19:16:57.168Z,7.55
2023-03-16T19:19:24.374Z,7.53
2023-03-16T19:21:57.169Z,7.54
2023-03-16T19:24:27.368Z,7.52
2023-03-16T19:26:54.446Z,7.46
2023-03-16T19:29:29.575Z,7.48
2023-03-16T19:31:57.160Z,7.57
2023-03-16T19:34:23.901Z,7.55
2023-03-16T19:36:50.972Z,7.57
2023-03-16T19:39:17.445Z,7.50
2023-03-16T19:41:47.532Z,7.55
2023-03-16T19:44:17.833Z,7.49
2023-03-16T19:46:45.164Z,7.38
2023-03-16T19:49:22.653Z,7.45
2023-03-16T19:51:53.806Z,7.34
2023-03-16T19:54:24.600Z,7.32
2023-03-16T19:56:52.524Z,7.37
2023-03-16T19:59:20.072Z,7.44
2023-03-16T20:01:47.038Z,7.43
2023-03-16T20:04:20.048Z,7.44
2023-03-16T20:06:49.365Z,7.40
2023-03-16T20:09:16.936Z,7.41
2023-03-16T20:11:43.793Z,7.40
2023-03-16T20:14:29.039Z,7.42
2023-03-16T20:16:55.943Z,7.43
2023-03-16T20:19:23.071Z,7.45
2023-03-16T20:21:49.581Z,7.39
2023-03-16T20:24:18.129Z,7.34
2023-03-16T20:26:46.294Z,7.38
2023-03-16T20:29:29.366Z,7.40
2023-03-16T20:31:56.124Z,7.36
2023-03-16T20:34:28.451Z,7.34
2023-03-16T20:36:55.784Z,7.35
2023-03-16T20:39:22.547Z,7.32
2023-03-16T20:41:50.380Z,7.31
2023-03-16T20:44:21.268Z,7.30
2023-03-16T20:46:47.781Z,7.28
2023-03-16T20:49:23.613Z,7.26
2023-03-16T20:51:50.695Z,7.38
2023-03-16T20:54:17.705Z,7.33
2023-03-16T20:56:44.408Z,7.23
2023-03-16T20:59:20.314Z,7.23
2023-03-16T21:01:47.918Z,7.22
2023-03-16T21:04:23.533Z,7.25
2023-03-16T21:06:51.008Z,7.23
2023-03-16T21:09:18.723Z,7.23
2023-03-16T21:11:46.303Z,7.12
2023-03-16T21:14:22.201Z,7.11
2023-03-16T21:16:49.390Z,7.12
2023-03-16T21:19:21.550Z,7.08
2023-03-16T21:21:48.322Z,7.06
2023-03-16T21:24:14.925Z,7.05
2023-03-16T21:26:43.861Z,6.97
2023-03-16T21:29:16.111Z,6.97
2023-03-16T21:31:42.952Z,7.00
2023-03-16T21:34:23.707Z,6.93
2023-03-16T21:36:50.412Z,6.96
2023-03-16T21:39:22.355Z,6.98
2023-03-16T21:41:50.574Z,6.99
2023-03-16T21:44:17.295Z,7.05
2023-03-16T21:46:43.831Z,7.00
2023-03-16T21:49:12.000Z,6.99
2023-03-16T21:51:38.400Z,6.91
2023-03-16T21:54:07.880Z,6.91
2023-03-16T21:56:36.032Z,6.85
2023-03-16T21:59:02.571Z,6.85
2023-03-16T22:01:31.467Z,6.81
2023-03-16T22:04:02.758Z,6.74
2023-03-16T22:06:30.366Z,6.78
2023-03-16T22:09:00.306Z,6.86
2023-03-16T22:11:28.812Z,6.90
2023-03-16T22:13:56.932Z,6.85
2023-03-16T22:16:26.331Z,6.87
2023-03-16T22:18:56.309Z,6.84
2023-03-16T22:21:32.711Z,6.81
2023-03-16T22:23:59.840Z,6.77
2023-03-16T22:26:27.699Z,6.74
2023-03-16T22:28:56.164Z,6.73
2023-03-16T22:31:28.900Z,6.80
2023-03-16T22:33:55.479Z,6.81
2023-03-16T22:36:22.856Z,6.84
2023-03-16T22:38:56.817Z,6.70
2023-03-16T22:41:23.555Z,6.64
2023-03-16T22:43:50.155Z,6.66
2023-03-16T22:46:23.511Z,6.73
2023-03-16T22:48:51.474Z,6.68
2023-03-16T22:51:26.590Z,6.77
2023-03-16T22:53:56.949Z,6.73
2023-03-16T22:56:24.318Z,6.67
2023-03-16T22:59:07.785Z,6.71
2023-03-16T23:01:34.240Z,6.75
2023-03-16T23:04:01.793Z,6.64
2023-03-16T23:06:31.379Z,6.70
2023-03-16T23:08:58.140Z,6.75
2023-03-16T23:11:28.564Z,6.62
2023-03-16T23:13:55.430Z,6.52
2023-03-16T23:16:28.300Z,6.60
2023-03-16T23:18:55.413Z,6.44
2023-03-16T23:21:23.751Z,6.44
2023-03-16T23:24:03.149Z,6.41
2023-03-16T23:26:31.683Z,6.36
2023-03-16T23:28:58.609Z,6.38
2023-03-16T23:31:27.009Z,6.23
2023-03-16T23:33:53.413Z,6.27
2023-03-16T23:36:22.512Z,6.19
2023-03-16T23:38:50.378Z,6.20
2023-03-16T23:41:21.677Z,6.27
2023-03-16T23:43:48.918Z,6.17
2023-03-16T23:46:18.464Z,6.05
2023-03-16T23:48:47.276Z,6.13
2023-03-16T23:51:27.690Z,6.08
2023-03-16T23:53:54.499Z,6.17
2023-03-16T23:56:22.499Z,6.11
2023-03-16T23:58:49.011Z,6.02
